East Helena, Montana
Current Conditions -  °F | °C
As of 12:53 AM on Saturday 01 Nov 2014 (Local Time) from KHLN Reporting Station
Clear Clear  
Wind Chill: 38°   Ceiling: Unl
Heat Index: 38°   Visibility: 10mi
Dew Point: 32°   Wind: 3mph
Humidity: 79%   Direction: 310°NW
Pressure: 29.75"   Gusts: NA
Location:  46.59°N, 111.92°W
Report Text: KHLN 010653Z AUTO 31003KT 10SM CLR 03/00 A2975 RMK AO2 SLP096 T00330000 401440006
Loading
Personal Weather Stations






























Interactive Weather Map
Tropical Storm Tracking
New forecast layout! Learn more

10-Day Weather Forecast

Advertisements
Track Severe Weather on mobile